sensor_id;sensor_type;location;lat;lon;timestamp;pressure;altitude;pressure_sealevel;temperature
15607;BMP180;7865;50.918;4.510;2023-06-14T00:01:03;100834.00;;;17.80
15607;BMP180;7865;50.918;4.510;2023-06-14T00:06:07;100849.00;;;17.70
15607;BMP180;7865;50.918;4.510;2023-06-14T00:11:10;100831.00;;;17.70
15607;BMP180;7865;50.918;4.510;2023-06-14T00:16:12;100834.00;;;17.60
15607;BMP180;7865;50.918;4.510;2023-06-14T00:21:14;100825.00;;;17.50
15607;BMP180;7865;50.918;4.510;2023-06-14T00:26:16;100830.00;;;17.40
15607;BMP180;7865;50.918;4.510;2023-06-14T00:31:18;100822.00;;;17.40
15607;BMP180;7865;50.918;4.510;2023-06-14T00:36:21;100829.00;;;17.40
15607;BMP180;7865;50.918;4.510;2023-06-14T00:41:24;100829.00;;;17.40
15607;BMP180;7865;50.918;4.510;2023-06-14T00:46:26;100833.00;;;17.40
15607;BMP180;7865;50.918;4.510;2023-06-14T00:51:29;100832.00;;;17.40
15607;BMP180;7865;50.918;4.510;2023-06-14T00:56:31;100833.00;;;17.30
15607;BMP180;7865;50.918;4.510;2023-06-14T01:01:33;100833.00;;;17.20
15607;BMP180;7865;50.918;4.510;2023-06-14T01:06:41;100837.00;;;17.10
15607;BMP180;7865;50.918;4.510;2023-06-14T01:12:15;100846.00;;;17.00
15607;BMP180;7865;50.918;4.510;2023-06-14T01:17:18;100847.00;;;16.80
15607;BMP180;7865;50.918;4.510;2023-06-14T01:22:26;100843.00;;;16.70
15607;BMP180;7865;50.918;4.510;2023-06-14T01:27:30;100858.00;;;16.50
15607;BMP180;7865;50.918;4.510;2023-06-14T01:32:34;100858.00;;;16.50
15607;BMP180;7865;50.918;4.510;2023-06-14T01:37:37;100853.00;;;16.40
15607;BMP180;7865;50.918;4.510;2023-06-14T01:42:40;100857.00;;;16.30
15607;BMP180;7865;50.918;4.510;2023-06-14T01:47:44;100849.00;;;16.20
15607;BMP180;7865;50.918;4.510;2023-06-14T01:52:47;100856.00;;;16.20
15607;BMP180;7865;50.918;4.510;2023-06-14T01:57:49;100856.00;;;16.10
15607;BMP180;7865;50.918;4.510;2023-06-14T02:02:51;100854.00;;;16.10
15607;BMP180;7865;50.918;4.510;2023-06-14T02:07:54;100859.00;;;16.10
15607;BMP180;7865;50.918;4.510;2023-06-14T02:12:56;100853.00;;;16.00
15607;BMP180;7865;50.918;4.510;2023-06-14T02:17:58;100857.00;;;15.90
15607;BMP180;7865;50.918;4.510;2023-06-14T02:23:00;100854.00;;;15.90
15607;BMP180;7865;50.918;4.510;2023-06-14T02:28:06;100853.00;;;15.70
15607;BMP180;7865;50.918;4.510;2023-06-14T02:33:08;100856.00;;;15.60
15607;BMP180;7865;50.918;4.510;2023-06-14T02:38:18;100859.00;;;15.50
15607;BMP180;7865;50.918;4.510;2023-06-14T02:43:23;100860.00;;;15.40
15607;BMP180;7865;50.918;4.510;2023-06-14T02:48:25;100857.00;;;15.30
15607;BMP180;7865;50.918;4.510;2023-06-14T02:53:27;100851.00;;;15.30
15607;BMP180;7865;50.918;4.510;2023-06-14T02:58:29;100853.00;;;15.20
15607;BMP180;7865;50.918;4.510;2023-06-14T03:03:31;100850.00;;;15.10
15607;BMP180;7865;50.918;4.510;2023-06-14T03:08:34;100858.00;;;15.00
15607;BMP180;7865;50.918;4.510;2023-06-14T03:13:46;100852.00;;;15.00
15607;BMP180;7865;50.918;4.510;2023-06-14T03:18:50;100865.00;;;14.90
15607;BMP180;7865;50.918;4.510;2023-06-14T03:23:52;100877.00;;;14.90
15607;BMP180;7865;50.918;4.510;2023-06-14T03:28:55;100874.00;;;14.80
15607;BMP180;7865;50.918;4.510;2023-06-14T03:33:58;100890.00;;;14.70
15607;BMP180;7865;50.918;4.510;2023-06-14T03:39:01;100888.00;;;14.70
15607;BMP180;7865;50.918;4.510;2023-06-14T03:44:04;100898.00;;;14.70
15607;BMP180;7865;50.918;4.510;2023-06-14T03:49:06;100893.00;;;14.70
15607;BMP180;7865;50.918;4.510;2023-06-14T03:54:09;100896.00;;;14.80
15607;BMP180;7865;50.918;4.510;2023-06-14T03:59:31;100898.00;;;15.00
15607;BMP180;7865;50.918;4.510;2023-06-14T04:04:33;100908.00;;;15.30
15607;BMP180;7865;50.918;4.510;2023-06-14T04:09:39;100911.00;;;15.60
15607;BMP180;7865;50.918;4.510;2023-06-14T04:14:42;100921.00;;;15.70
15607;BMP180;7865;50.918;4.510;2023-06-14T04:19:46;100916.00;;;15.80
15607;BMP180;7865;50.918;4.510;2023-06-14T04:24:49;100921.00;;;15.90
15607;BMP180;7865;50.918;4.510;2023-06-14T04:30:06;100928.00;;;16.00
15607;BMP180;7865;50.918;4.510;2023-06-14T04:35:15;100938.00;;;16.10
15607;BMP180;7865;50.918;4.510;2023-06-14T04:40:20;100936.00;;;16.20
15607;BMP180;7865;50.918;4.510;2023-06-14T04:45:22;100943.00;;;16.30
15607;BMP180;7865;50.918;4.510;2023-06-14T04:50:25;100947.00;;;16.50
15607;BMP180;7865;50.918;4.510;2023-06-14T04:55:28;100950.00;;;16.70
15607;BMP180;7865;50.918;4.510;2023-06-14T05:00:30;100942.00;;;17.00
15607;BMP180;7865;50.918;4.510;2023-06-14T05:05:33;100946.00;;;17.40
15607;BMP180;7865;50.918;4.510;2023-06-14T05:10:36;100950.00;;;17.90
15607;BMP180;7865;50.918;4.510;2023-06-14T05:15:38;100949.00;;;18.30
15607;BMP180;7865;50.918;4.510;2023-06-14T05:20:41;100951.00;;;18.70
15607;BMP180;7865;50.918;4.510;2023-06-14T05:25:46;100956.00;;;19.20
15607;BMP180;7865;50.918;4.510;2023-06-14T05:30:49;100959.00;;;19.60
15607;BMP180;7865;50.918;4.510;2023-06-14T05:35:51;100956.00;;;20.10
15607;BMP180;7865;50.918;4.510;2023-06-14T05:40:53;100960.00;;;20.60
15607;BMP180;7865;50.918;4.510;2023-06-14T05:45:55;100967.00;;;21.00
15607;BMP180;7865;50.918;4.510;2023-06-14T05:50:58;100965.00;;;21.30
15607;BMP180;7865;50.918;4.510;2023-06-14T05:56:00;100969.00;;;21.60
15607;BMP180;7865;50.918;4.510;2023-06-14T06:01:02;100973.00;;;21.90
15607;BMP180;7865;50.918;4.510;2023-06-14T06:06:05;100976.00;;;22.10
15607;BMP180;7865;50.918;4.510;2023-06-14T06:11:07;100977.00;;;22.40
15607;BMP180;7865;50.918;4.510;2023-06-14T06:16:09;100988.00;;;22.80
15607;BMP180;7865;50.918;4.510;2023-06-14T06:21:11;100981.00;;;23.10
15607;BMP180;7865;50.918;4.510;2023-06-14T06:26:14;100988.00;;;23.40
15607;BMP180;7865;50.918;4.510;2023-06-14T06:31:16;100985.00;;;23.70
15607;BMP180;7865;50.918;4.510;2023-06-14T06:36:18;100987.00;;;24.10
15607;BMP180;7865;50.918;4.510;2023-06-14T06:41:20;100983.00;;;24.60
15607;BMP180;7865;50.918;4.510;2023-06-14T06:46:22;100988.00;;;25.00
15607;BMP180;7865;50.918;4.510;2023-06-14T06:51:24;100996.00;;;25.30
15607;BMP180;7865;50.918;4.510;2023-06-14T06:56:26;100999.00;;;25.60
15607;BMP180;7865;50.918;4.510;2023-06-14T07:01:28;100998.00;;;26.00
15607;BMP180;7865;50.918;4.510;2023-06-14T07:06:31;101008.00;;;26.40
15607;BMP180;7865;50.918;4.510;2023-06-14T07:11:33;101005.00;;;26.80
15607;BMP180;7865;50.918;4.510;2023-06-14T07:16:35;101012.00;;;27.10
15607;BMP180;7865;50.918;4.510;2023-06-14T07:21:37;101017.00;;;27.30
15607;BMP180;7865;50.918;4.510;2023-06-14T07:26:39;101008.00;;;27.70
15607;BMP180;7865;50.918;4.510;2023-06-14T07:31:41;101010.00;;;27.90
15607;BMP180;7865;50.918;4.510;2023-06-14T07:36:44;101010.00;;;28.30
15607;BMP180;7865;50.918;4.510;2023-06-14T07:41:46;101013.00;;;28.40
15607;BMP180;7865;50.918;4.510;2023-06-14T07:46:48;101019.00;;;28.90
15607;BMP180;7865;50.918;4.510;2023-06-14T07:51:53;101013.00;;;29.30
15607;BMP180;7865;50.918;4.510;2023-06-14T07:56:55;101019.00;;;29.70
15607;BMP180;7865;50.918;4.510;2023-06-14T08:01:58;101022.00;;;29.90
15607;BMP180;7865;50.918;4.510;2023-06-14T08:07:00;101023.00;;;30.40
15607;BMP180;7865;50.918;4.510;2023-06-14T08:12:03;101026.00;;;30.60
15607;BMP180;7865;50.918;4.510;2023-06-14T08:17:06;101030.00;;;31.00
15607;BMP180;7865;50.918;4.510;2023-06-14T08:22:08;101031.00;;;31.50
15607;BMP180;7865;50.918;4.510;2023-06-14T08:27:13;101031.00;;;31.50
15607;BMP180;7865;50.918;4.510;2023-06-14T08:32:15;101035.00;;;31.70
15607;BMP180;7865;50.918;4.510;2023-06-14T08:37:17;101033.00;;;32.00
15607;BMP180;7865;50.918;4.510;2023-06-14T08:42:20;101042.00;;;32.20
15607;BMP180;7865;50.918;4.510;2023-06-14T08:47:32;101035.00;;;32.20
15607;BMP180;7865;50.918;4.510;2023-06-14T08:52:45;101036.00;;;32.60
15607;BMP180;7865;50.918;4.510;2023-06-14T08:57:51;101036.00;;;32.90
15607;BMP180;7865;50.918;4.510;2023-06-14T09:02:55;101027.00;;;33.00
15607;BMP180;7865;50.918;4.510;2023-06-14T09:08:00;101042.00;;;33.00
15607;BMP180;7865;50.918;4.510;2023-06-14T09:13:07;101043.00;;;33.40
15607;BMP180;7865;50.918;4.510;2023-06-14T09:18:10;101049.00;;;33.30
15607;BMP180;7865;50.918;4.510;2023-06-14T09:23:13;101049.00;;;33.20
15607;BMP180;7865;50.918;4.510;2023-06-14T09:28:15;101054.00;;;33.20
15607;BMP180;7865;50.918;4.510;2023-06-14T09:33:17;101054.00;;;33.20
15607;BMP180;7865;50.918;4.510;2023-06-14T09:38:20;101064.00;;;33.00
15607;BMP180;7865;50.918;4.510;2023-06-14T09:43:22;101071.00;;;32.90
15607;BMP180;7865;50.918;4.510;2023-06-14T09:48:25;101068.00;;;33.40
15607;BMP180;7865;50.918;4.510;2023-06-14T09:53:30;101072.00;;;33.80
15607;BMP180;7865;50.918;4.510;2023-06-14T09:58:35;101069.00;;;33.90
15607;BMP180;7865;50.918;4.510;2023-06-14T10:03:39;101064.00;;;33.90
15607;BMP180;7865;50.918;4.510;2023-06-14T10:09:03;101076.00;;;34.30
15607;BMP180;7865;50.918;4.510;2023-06-14T10:14:06;101073.00;;;34.40
15607;BMP180;7865;50.918;4.510;2023-06-14T10:24:33;101066.00;;;34.20
15607;BMP180;7865;50.918;4.510;2023-06-14T10:30:05;101071.00;;;34.40
15607;BMP180;7865;50.918;4.510;2023-06-14T10:35:16;101070.00;;;34.50
15607;BMP180;7865;50.918;4.510;2023-06-14T10:40:31;101078.00;;;34.60
15607;BMP180;7865;50.918;4.510;2023-06-14T10:45:33;101071.00;;;35.00
15607;BMP180;7865;50.918;4.510;2023-06-14T10:50:35;101076.00;;;35.40
15607;BMP180;7865;50.918;4.510;2023-06-14T10:55:37;101076.00;;;35.50
15607;BMP180;7865;50.918;4.510;2023-06-14T11:00:44;101074.00;;;35.60
15607;BMP180;7865;50.918;4.510;2023-06-14T11:10:49;101065.00;;;35.60
15607;BMP180;7865;50.918;4.510;2023-06-14T11:15:52;101067.00;;;35.40
15607;BMP180;7865;50.918;4.510;2023-06-14T11:20:59;101060.00;;;35.60
15607;BMP180;7865;50.918;4.510;2023-06-14T11:26:01;101062.00;;;36.40
15607;BMP180;7865;50.918;4.510;2023-06-14T11:31:04;101054.00;;;36.60
15607;BMP180;7865;50.918;4.510;2023-06-14T11:36:06;101053.00;;;36.30
15607;BMP180;7865;50.918;4.510;2023-06-14T11:41:10;101044.00;;;36.10
15607;BMP180;7865;50.918;4.510;2023-06-14T11:46:13;101053.00;;;36.40
15607;BMP180;7865;50.918;4.510;2023-06-14T11:51:18;101052.00;;;36.70
15607;BMP180;7865;50.918;4.510;2023-06-14T11:56:20;101046.00;;;36.70
15607;BMP180;7865;50.918;4.510;2023-06-14T12:01:23;101047.00;;;36.60
15607;BMP180;7865;50.918;4.510;2023-06-14T12:06:27;101046.00;;;36.80
15607;BMP180;7865;50.918;4.510;2023-06-14T12:11:37;101045.00;;;36.10
15607;BMP180;7865;50.918;4.510;2023-06-14T12:16:39;101053.00;;;36.20
15607;BMP180;7865;50.918;4.510;2023-06-14T12:21:47;101041.00;;;36.30
15607;BMP180;7865;50.918;4.510;2023-06-14T12:26:51;101053.00;;;36.50
15607;BMP180;7865;50.918;4.510;2023-06-14T12:31:54;101045.00;;;36.50
15607;BMP180;7865;50.918;4.510;2023-06-14T12:36:58;101049.00;;;36.60
15607;BMP180;7865;50.918;4.510;2023-06-14T12:42:01;101058.00;;;36.60
15607;BMP180;7865;50.918;4.510;2023-06-14T12:47:06;101054.00;;;36.80
15607;BMP180;7865;50.918;4.510;2023-06-14T12:52:08;101044.00;;;36.60
15607;BMP180;7865;50.918;4.510;2023-06-14T12:57:10;101052.00;;;36.50
15607;BMP180;7865;50.918;4.510;2023-06-14T13:02:14;101040.00;;;36.40
15607;BMP180;7865;50.918;4.510;2023-06-14T13:07:17;101046.00;;;36.20
15607;BMP180;7865;50.918;4.510;2023-06-14T13:12:19;101041.00;;;36.10
15607;BMP180;7865;50.918;4.510;2023-06-14T13:17:21;101058.00;;;35.90
15607;BMP180;7865;50.918;4.510;2023-06-14T13:22:24;101047.00;;;35.90
15607;BMP180;7865;50.918;4.510;2023-06-14T13:27:27;101044.00;;;35.80
15607;BMP180;7865;50.918;4.510;2023-06-14T13:32:29;101043.00;;;35.80
15607;BMP180;7865;50.918;4.510;2023-06-14T13:37:31;101051.00;;;35.60
15607;BMP180;7865;50.918;4.510;2023-06-14T13:42:33;101041.00;;;35.20
15607;BMP180;7865;50.918;4.510;2023-06-14T13:47:35;101042.00;;;35.40
15607;BMP180;7865;50.918;4.510;2023-06-14T13:52:38;101044.00;;;35.30
15607;BMP180;7865;50.918;4.510;2023-06-14T13:57:40;101046.00;;;35.20
15607;BMP180;7865;50.918;4.510;2023-06-14T14:02:42;101040.00;;;35.00
15607;BMP180;7865;50.918;4.510;2023-06-14T14:07:44;101052.00;;;35.00
15607;BMP180;7865;50.918;4.510;2023-06-14T14:12:47;101037.00;;;34.80
15607;BMP180;7865;50.918;4.510;2023-06-14T14:17:50;101042.00;;;34.90
15607;BMP180;7865;50.918;4.510;2023-06-14T14:22:54;101048.00;;;34.50
15607;BMP180;7865;50.918;4.510;2023-06-14T14:27:56;101032.00;;;34.20
15607;BMP180;7865;50.918;4.510;2023-06-14T14:32:58;101042.00;;;34.00
15607;BMP180;7865;50.918;4.510;2023-06-14T14:38:00;101049.00;;;34.00
15607;BMP180;7865;50.918;4.510;2023-06-14T14:43:05;101042.00;;;34.70
15607;BMP180;7865;50.918;4.510;2023-06-14T14:48:07;101049.00;;;35.10
15607;BMP180;7865;50.918;4.510;2023-06-14T14:53:09;101050.00;;;35.40
15607;BMP180;7865;50.918;4.510;2023-06-14T14:58:13;101029.00;;;36.50
15607;BMP180;7865;50.918;4.510;2023-06-14T15:03:16;101043.00;;;37.30
15607;BMP180;7865;50.918;4.510;2023-06-14T15:08:18;101038.00;;;37.90
15607;BMP180;7865;50.918;4.510;2023-06-14T15:13:20;101031.00;;;38.40
15607;BMP180;7865;50.918;4.510;2023-06-14T15:18:24;101034.00;;;39.10
15607;BMP180;7865;50.918;4.510;2023-06-14T15:23:26;101033.00;;;39.80
15607;BMP180;7865;50.918;4.510;2023-06-14T15:28:29;101030.00;;;40.40
15607;BMP180;7865;50.918;4.510;2023-06-14T15:33:31;101028.00;;;39.40
15607;BMP180;7865;50.918;4.510;2023-06-14T15:38:33;101041.00;;;35.00
15607;BMP180;7865;50.918;4.510;2023-06-14T15:43:35;101036.00;;;34.50
15607;BMP180;7865;50.918;4.510;2023-06-14T15:48:37;101046.00;;;33.80
15607;BMP180;7865;50.918;4.510;2023-06-14T15:53:39;101042.00;;;32.00
15607;BMP180;7865;50.918;4.510;2023-06-14T15:58:42;101036.00;;;30.80
15607;BMP180;7865;50.918;4.510;2023-06-14T16:03:44;101033.00;;;30.30
15607;BMP180;7865;50.918;4.510;2023-06-14T16:08:46;101037.00;;;29.70
15607;BMP180;7865;50.918;4.510;2023-06-14T16:13:48;101037.00;;;29.40
15607;BMP180;7865;50.918;4.510;2023-06-14T16:18:50;101032.00;;;29.30
15607;BMP180;7865;50.918;4.510;2023-06-14T16:23:53;101032.00;;;29.20
15607;BMP180;7865;50.918;4.510;2023-06-14T16:28:55;101032.00;;;28.80
15607;BMP180;7865;50.918;4.510;2023-06-14T16:33:57;101030.00;;;28.40
15607;BMP180;7865;50.918;4.510;2023-06-14T16:38:59;101032.00;;;28.30
15607;BMP180;7865;50.918;4.510;2023-06-14T16:44:01;101035.00;;;28.20
15607;BMP180;7865;50.918;4.510;2023-06-14T16:49:05;101035.00;;;28.00
15607;BMP180;7865;50.918;4.510;2023-06-14T16:54:14;101038.00;;;27.70
15607;BMP180;7865;50.918;4.510;2023-06-14T16:59:16;101052.00;;;27.60
15607;BMP180;7865;50.918;4.510;2023-06-14T17:04:19;101043.00;;;27.50
15607;BMP180;7865;50.918;4.510;2023-06-14T17:09:21;101058.00;;;27.30
15607;BMP180;7865;50.918;4.510;2023-06-14T17:14:23;101058.00;;;27.20
15607;BMP180;7865;50.918;4.510;2023-06-14T17:19:25;101058.00;;;27.10
15607;BMP180;7865;50.918;4.510;2023-06-14T17:24:28;101064.00;;;26.90
15607;BMP180;7865;50.918;4.510;2023-06-14T17:29:30;101078.00;;;26.80
15607;BMP180;7865;50.918;4.510;2023-06-14T17:34:32;101071.00;;;26.70
15607;BMP180;7865;50.918;4.510;2023-06-14T17:39:34;101075.00;;;26.70
15607;BMP180;7865;50.918;4.510;2023-06-14T17:44:38;101070.00;;;26.50
15607;BMP180;7865;50.918;4.510;2023-06-14T17:49:40;101065.00;;;26.40
15607;BMP180;7865;50.918;4.510;2023-06-14T17:54:42;101076.00;;;26.30
15607;BMP180;7865;50.918;4.510;2023-06-14T17:59:44;101084.00;;;26.20
15607;BMP180;7865;50.918;4.510;2023-06-14T18:04:47;101084.00;;;26.10
15607;BMP180;7865;50.918;4.510;2023-06-14T18:09:57;101079.00;;;26.00
15607;BMP180;7865;50.918;4.510;2023-06-14T18:14:59;101087.00;;;26.00
15607;BMP180;7865;50.918;4.510;2023-06-14T18:20:02;101096.00;;;25.80
15607;BMP180;7865;50.918;4.510;2023-06-14T18:25:05;101103.00;;;25.70
15607;BMP180;7865;50.918;4.510;2023-06-14T18:30:08;101093.00;;;25.50
15607;BMP180;7865;50.918;4.510;2023-06-14T18:35:14;101104.00;;;25.40
15607;BMP180;7865;50.918;4.510;2023-06-14T18:40:19;101108.00;;;25.20
15607;BMP180;7865;50.918;4.510;2023-06-14T18:45:21;101112.00;;;25.10
15607;BMP180;7865;50.918;4.510;2023-06-14T18:50:23;101117.00;;;25.00
15607;BMP180;7865;50.918;4.510;2023-06-14T18:55:26;101110.00;;;24.90
15607;BMP180;7865;50.918;4.510;2023-06-14T19:00:28;101108.00;;;24.80
15607;BMP180;7865;50.918;4.510;2023-06-14T19:05:32;101111.00;;;24.60
15607;BMP180;7865;50.918;4.510;2023-06-14T19:10:34;101114.00;;;24.50
15607;BMP180;7865;50.918;4.510;2023-06-14T19:15:37;101114.00;;;24.50
15607;BMP180;7865;50.918;4.510;2023-06-14T19:20:39;101118.00;;;24.60
15607;BMP180;7865;50.918;4.510;2023-06-14T19:25:41;101124.00;;;24.30
15607;BMP180;7865;50.918;4.510;2023-06-14T19:30:44;101136.00;;;24.10
15607;BMP180;7865;50.918;4.510;2023-06-14T19:35:46;101136.00;;;23.80
15607;BMP180;7865;50.918;4.510;2023-06-14T19:40:48;101140.00;;;23.60
15607;BMP180;7865;50.918;4.510;2023-06-14T19:45:50;101148.00;;;23.30
15607;BMP180;7865;50.918;4.510;2023-06-14T19:50:52;101150.00;;;23.10
15607;BMP180;7865;50.918;4.510;2023-06-14T19:55:54;101159.00;;;22.80
15607;BMP180;7865;50.918;4.510;2023-06-14T20:00:56;101166.00;;;22.60
15607;BMP180;7865;50.918;4.510;2023-06-14T20:05:58;101177.00;;;22.40
15607;BMP180;7865;50.918;4.510;2023-06-14T20:11:00;101183.00;;;22.20
15607;BMP180;7865;50.918;4.510;2023-06-14T20:16:02;101184.00;;;22.00
15607;BMP180;7865;50.918;4.510;2023-06-14T20:21:05;101179.00;;;21.80
15607;BMP180;7865;50.918;4.510;2023-06-14T20:26:08;101197.00;;;21.70
15607;BMP180;7865;50.918;4.510;2023-06-14T20:31:11;101195.00;;;21.70
15607;BMP180;7865;50.918;4.510;2023-06-14T20:36:15;101209.00;;;21.60
15607;BMP180;7865;50.918;4.510;2023-06-14T20:41:17;101206.00;;;21.50
15607;BMP180;7865;50.918;4.510;2023-06-14T20:46:19;101205.00;;;21.30
15607;BMP180;7865;50.918;4.510;2023-06-14T20:51:22;101208.00;;;21.20
15607;BMP180;7865;50.918;4.510;2023-06-14T20:56:24;101203.00;;;21.20
15607;BMP180;7865;50.918;4.510;2023-06-14T21:01:27;101213.00;;;21.20
15607;BMP180;7865;50.918;4.510;2023-06-14T21:06:38;101218.00;;;21.10
15607;BMP180;7865;50.918;4.510;2023-06-14T21:11:40;101213.00;;;21.00
15607;BMP180;7865;50.918;4.510;2023-06-14T21:16:42;101215.00;;;20.80
15607;BMP180;7865;50.918;4.510;2023-06-14T21:21:45;101216.00;;;20.70
15607;BMP180;7865;50.918;4.510;2023-06-14T21:26:47;101215.00;;;20.60
15607;BMP180;7865;50.918;4.510;2023-06-14T21:31:49;101218.00;;;20.50
15607;BMP180;7865;50.918;4.510;2023-06-14T21:36:52;101221.00;;;20.40
15607;BMP180;7865;50.918;4.510;2023-06-14T21:41:54;101228.00;;;20.30
15607;BMP180;7865;50.918;4.510;2023-06-14T21:46:56;101226.00;;;20.20
15607;BMP180;7865;50.918;4.510;2023-06-14T21:51:58;101223.00;;;20.10
15607;BMP180;7865;50.918;4.510;2023-06-14T21:57:00;101227.00;;;20.00
15607;BMP180;7865;50.918;4.510;2023-06-14T22:02:02;101228.00;;;19.90
15607;BMP180;7865;50.918;4.510;2023-06-14T22:07:05;101235.00;;;19.80
15607;BMP180;7865;50.918;4.510;2023-06-14T22:12:09;101232.00;;;19.70
15607;BMP180;7865;50.918;4.510;2023-06-14T22:17:18;101233.00;;;19.60
15607;BMP180;7865;50.918;4.510;2023-06-14T22:22:23;101234.00;;;19.40
15607;BMP180;7865;50.918;4.510;2023-06-14T22:27:29;101240.00;;;19.30
15607;BMP180;7865;50.918;4.510;2023-06-14T22:32:31;101242.00;;;19.20
15607;BMP180;7865;50.918;4.510;2023-06-14T22:37:36;101241.00;;;19.10
15607;BMP180;7865;50.918;4.510;2023-06-14T22:42:41;101248.00;;;19.00
15607;BMP180;7865;50.918;4.510;2023-06-14T22:47:49;101253.00;;;18.80
15607;BMP180;7865;50.918;4.510;2023-06-14T22:52:54;101249.00;;;18.70
15607;BMP180;7865;50.918;4.510;2023-06-14T22:57:56;101264.00;;;18.50
15607;BMP180;7865;50.918;4.510;2023-06-14T23:02:58;101253.00;;;18.30
15607;BMP180;7865;50.918;4.510;2023-06-14T23:08:01;101258.00;;;18.20
15607;BMP180;7865;50.918;4.510;2023-06-14T23:13:03;101259.00;;;18.00
15607;BMP180;7865;50.918;4.510;2023-06-14T23:18:05;101254.00;;;17.90
15607;BMP180;7865;50.918;4.510;2023-06-14T23:23:07;101254.00;;;17.70
15607;BMP180;7865;50.918;4.510;2023-06-14T23:28:09;101252.00;;;17.50
15607;BMP180;7865;50.918;4.510;2023-06-14T23:33:12;101252.00;;;17.40
15607;BMP180;7865;50.918;4.510;2023-06-14T23:38:17;101255.00;;;17.30
15607;BMP180;7865;50.918;4.510;2023-06-14T23:43:20;101257.00;;;17.20
15607;BMP180;7865;50.918;4.510;2023-06-14T23:48:23;101261.00;;;17.00
15607;BMP180;7865;50.918;4.510;2023-06-14T23:53:28;101259.00;;;16.90
15607;BMP180;7865;50.918;4.510;2023-06-14T23:58:30;101259.00;;;16.80
